Urb Cupey Gdns, Puerto Rico
Current Conditions -  °F | °C
As of 4:56 PM on Monday 24 Nov 2014 (Local Time) from TJSJ Reporting Station
Scattered Clouds Scattered Clouds  
Wind Chill: 80°   Ceiling: Unl
Heat Index: 85°   Visibility: 10mi
Dew Point: 76°   Wind: 8mph
Humidity: 87%   Direction: 80°E
Pressure: 30"   Gusts: NA
Location:  18.3754°N, 66.0577°W
Report Text: TJSJ 242056Z 08007KT 10SM SCT032 SCT070 27/24 A3000 RMK AO2 SLP157 VCSH N SE 60016 T02670244 55001
Loading
Personal Weather Stations






























Interactive Weather Map New forecast layout! Learn more

10-Day Weather Forecast

Advertisements
Track Severe Weather on mobile